N6306Q KMEM-KJWN
Flight info
| Callsign | N6306Q |
|---|---|
| Flight time | 0h 48m |
| Altitude | 15000 |
| Route | EONEE |
| Aircraft | TBM9/L-V/N |
Departure
| Time | 2026-04-24 00:12 |
|---|---|
| Airport | Memphis International Airport (KMEM) |
Arrival
| Time | 2026-04-24 01:00 |
|---|---|
| Airport | John C Tune Airport (KJWN) |
| Time | Latitude | Longitude | Altitude | Speed | Heading |
|---|---|---|---|---|---|
| 2026-04-23 23:59 | 35.05478 | -89.98146 | 270 ft | 0 kts | 91° |
| 2026-04-24 00:10 | 35.05481 | -89.98129 | 271 ft | 1 kts | 69° |
| 2026-04-24 00:10 | 35.05489 | -89.98052 | 273 ft | 18 kts | 85° |
| 2026-04-24 00:11 | 35.05486 | -89.97893 | 276 ft | 16 kts | 94° |
| 2026-04-24 00:11 | 35.05463 | -89.97783 | 277 ft | 14 kts | 118° |
| 2026-04-24 00:11 | 35.05448 | -89.97737 | 277 ft | 0 kts | 104° |
| 2026-04-24 00:11 | 35.05446 | -89.97726 | 277 ft | 10 kts | 103° |
| 2026-04-24 00:12 | 35.05353 | -89.97623 | 279 ft | 35 kts | 174° |
| 2026-04-24 00:12 | 35.04873 | -89.97605 | 312 ft | 100 kts | 180° |
| 2026-04-24 00:12 | 35.04088 | -89.97547 | 690 ft | 122 kts | 160° |
| 2026-04-24 00:12 | 35.03421 | -89.96795 | 1169 ft | 138 kts | 135° |
| 2026-04-24 00:13 | 35.02739 | -89.95926 | 1678 ft | 146 kts | 139° |
| 2026-04-24 00:13 | 35.02010 | -89.94980 | 2165 ft | 158 kts | 138° |
| 2026-04-24 00:13 | 35.01241 | -89.93976 | 2665 ft | 165 kts | 138° |
| 2026-04-24 00:13 | 35.00419 | -89.92911 | 2945 ft | 185 kts | 137° |
| 2026-04-24 00:14 | 34.99748 | -89.91439 | 2965 ft | 215 kts | 110° |
| 2026-04-24 00:14 | 34.99507 | -89.89689 | 3527 ft | 209 kts | 96° |
| 2026-04-24 00:14 | 34.99782 | -89.87962 | 4161 ft | 205 kts | 79° |
| 2026-04-24 00:14 | 35.00199 | -89.86320 | 4799 ft | 200 kts | 78° |
| 2026-04-24 00:15 | 35.00634 | -89.84723 | 5423 ft | 197 kts | 75° |
| 2026-04-24 00:15 | 35.01158 | -89.83181 | 6059 ft | 196 kts | 72° |
| 2026-04-24 00:15 | 35.01680 | -89.81653 | 6716 ft | 193 kts | 72° |
| 2026-04-24 00:15 | 35.02174 | -89.80159 | 7420 ft | 187 kts | 71° |
| 2026-04-24 00:16 | 35.02655 | -89.78703 | 8137 ft | 182 kts | 70° |
| 2026-04-24 00:16 | 35.03124 | -89.77284 | 8873 ft | 178 kts | 70° |
| 2026-04-24 00:16 | 35.03579 | -89.75902 | 9617 ft | 172 kts | 69° |
| 2026-04-24 00:16 | 35.04017 | -89.74574 | 10313 ft | 166 kts | 68° |
| 2026-04-24 00:17 | 35.04440 | -89.73287 | 10955 ft | 164 kts | 68° |
| 2026-04-24 00:17 | 35.04882 | -89.71956 | 11465 ft | 172 kts | 68° |
| 2026-04-24 00:17 | 35.05330 | -89.70602 | 12074 ft | 172 kts | 67° |
| 2026-04-24 00:17 | 35.05777 | -89.69237 | 12677 ft | 174 kts | 67° |
| 2026-04-24 00:18 | 35.06229 | -89.67867 | 13295 ft | 174 kts | 66° |
| 2026-04-24 00:18 | 35.06685 | -89.66486 | 13882 ft | 176 kts | 66° |
| 2026-04-24 00:18 | 35.07140 | -89.65095 | 14426 ft | 177 kts | 66° |
| 2026-04-24 00:18 | 35.07603 | -89.63691 | 14941 ft | 181 kts | 65° |
| 2026-04-24 00:19 | 35.08118 | -89.62139 | 15008 ft | 213 kts | 66° |
| 2026-04-24 00:19 | 35.08712 | -89.60349 | 15014 ft | 240 kts | 66° |
| 2026-04-24 00:19 | 35.09360 | -89.58380 | 15020 ft | 259 kts | 66° |
| 2026-04-24 00:19 | 35.10045 | -89.56286 | 15022 ft | 272 kts | 66° |
| 2026-04-24 00:20 | 35.10746 | -89.54138 | 15023 ft | 279 kts | 66° |
| 2026-04-24 00:20 | 35.11474 | -89.51912 | 15019 ft | 285 kts | 66° |
| 2026-04-24 00:20 | 35.12214 | -89.49647 | 15025 ft | 288 kts | 66° |
| 2026-04-24 00:20 | 35.12958 | -89.47364 | 15023 ft | 290 kts | 66° |
| 2026-04-24 00:21 | 35.13708 | -89.45072 | 15021 ft | 291 kts | 66° |
| 2026-04-24 00:21 | 35.14459 | -89.42767 | 15021 ft | 292 kts | 67° |
| 2026-04-24 00:21 | 35.15210 | -89.40463 | 15019 ft | 292 kts | 66° |
| 2026-04-24 00:21 | 35.15962 | -89.38156 | 15020 ft | 292 kts | 67° |
| 2026-04-24 00:22 | 35.16714 | -89.35845 | 15022 ft | 292 kts | 67° |
| 2026-04-24 00:22 | 35.17467 | -89.33534 | 15021 ft | 292 kts | 67° |
| 2026-04-24 00:22 | 35.18220 | -89.31219 | 15022 ft | 292 kts | 67° |
| 2026-04-24 00:22 | 35.18969 | -89.28912 | 15021 ft | 292 kts | 67° |
| 2026-04-24 00:23 | 35.19719 | -89.26603 | 15011 ft | 292 kts | 67° |
| 2026-04-24 00:23 | 35.20468 | -89.24293 | 15013 ft | 292 kts | 67° |
| 2026-04-24 00:23 | 35.21216 | -89.21989 | 15014 ft | 292 kts | 67° |
| 2026-04-24 00:23 | 35.21964 | -89.19680 | 15015 ft | 292 kts | 67° |
| 2026-04-24 00:24 | 35.22711 | -89.17373 | 15011 ft | 292 kts | 67° |
| 2026-04-24 00:24 | 35.23492 | -89.15086 | 15014 ft | 291 kts | 62° |
| 2026-04-24 00:24 | 35.24447 | -89.12907 | 15016 ft | 291 kts | 60° |
| 2026-04-24 00:24 | 35.25402 | -89.10728 | 15017 ft | 291 kts | 60° |
| 2026-04-24 00:25 | 35.26027 | -89.09276 | 15017 ft | 292 kts | 60° |
| 2026-04-24 00:25 | 35.26977 | -89.07064 | 15021 ft | 294 kts | 60° |
| 2026-04-24 00:25 | 35.28249 | -89.04119 | 15022 ft | 295 kts | 60° |
| 2026-04-24 00:25 | 35.29211 | -89.01892 | 15021 ft | 296 kts | 60° |
| 2026-04-24 00:26 | 35.29859 | -89.00389 | 15030 ft | 296 kts | 60° |
| 2026-04-24 00:26 | 35.30819 | -88.98159 | 15032 ft | 296 kts | 60° |
| 2026-04-24 00:26 | 35.31769 | -88.95956 | 15031 ft | 296 kts | 60° |
| 2026-04-24 00:26 | 35.32731 | -88.93720 | 15029 ft | 296 kts | 60° |
| 2026-04-24 00:27 | 35.33692 | -88.91487 | 15032 ft | 296 kts | 60° |
| 2026-04-24 00:27 | 35.34650 | -88.89259 | 15035 ft | 296 kts | 60° |
| 2026-04-24 00:27 | 35.35609 | -88.87025 | 15036 ft | 296 kts | 60° |
| 2026-04-24 00:27 | 35.36566 | -88.84796 | 15033 ft | 295 kts | 60° |
| 2026-04-24 00:28 | 35.37524 | -88.82563 | 15034 ft | 295 kts | 60° |
| 2026-04-24 00:28 | 35.38479 | -88.80332 | 15035 ft | 295 kts | 60° |
| 2026-04-24 00:28 | 35.39433 | -88.78109 | 15033 ft | 295 kts | 60° |
| 2026-04-24 00:28 | 35.40388 | -88.75879 | 15034 ft | 295 kts | 60° |
| 2026-04-24 00:29 | 35.41341 | -88.73653 | 15037 ft | 295 kts | 60° |
| 2026-04-24 00:29 | 35.42293 | -88.71425 | 15034 ft | 295 kts | 60° |
| 2026-04-24 00:29 | 35.43243 | -88.69200 | 15036 ft | 295 kts | 60° |
| 2026-04-24 00:29 | 35.44196 | -88.66975 | 15035 ft | 294 kts | 60° |
| 2026-04-24 00:30 | 35.45145 | -88.64749 | 15034 ft | 294 kts | 60° |
| 2026-04-24 00:30 | 35.46094 | -88.62522 | 15036 ft | 294 kts | 60° |
| 2026-04-24 00:30 | 35.47042 | -88.60296 | 15040 ft | 294 kts | 60° |
| 2026-04-24 00:30 | 35.47991 | -88.58070 | 15038 ft | 294 kts | 60° |
| 2026-04-24 00:31 | 35.48927 | -88.55872 | 15037 ft | 295 kts | 60° |
| 2026-04-24 00:31 | 35.49876 | -88.53635 | 15037 ft | 295 kts | 60° |
| 2026-04-24 00:31 | 35.50828 | -88.51401 | 15038 ft | 296 kts | 60° |
| 2026-04-24 00:31 | 35.51782 | -88.49160 | 15040 ft | 296 kts | 60° |
| 2026-04-24 00:32 | 35.52733 | -88.46916 | 15038 ft | 296 kts | 61° |
| 2026-04-24 00:32 | 35.53587 | -88.44888 | 15041 ft | 295 kts | 61° |
| 2026-04-24 00:32 | 35.54535 | -88.42653 | 15040 ft | 295 kts | 60° |
| 2026-04-24 00:32 | 35.55485 | -88.40422 | 15039 ft | 294 kts | 60° |
| 2026-04-24 00:33 | 35.56430 | -88.38192 | 15043 ft | 294 kts | 61° |
| 2026-04-24 00:33 | 35.57374 | -88.35956 | 15042 ft | 294 kts | 61° |
| 2026-04-24 00:33 | 35.58303 | -88.33757 | 15043 ft | 294 kts | 61° |
| 2026-04-24 00:33 | 35.59245 | -88.31530 | 15043 ft | 293 kts | 60° |
| 2026-04-24 00:34 | 35.60184 | -88.29306 | 15046 ft | 293 kts | 60° |
| 2026-04-24 00:34 | 35.61124 | -88.27080 | 15045 ft | 293 kts | 61° |
| 2026-04-24 00:34 | 35.62062 | -88.24853 | 15047 ft | 293 kts | 61° |
| 2026-04-24 00:34 | 35.63002 | -88.22626 | 15045 ft | 293 kts | 61° |
| 2026-04-24 00:35 | 35.63941 | -88.20395 | 15046 ft | 293 kts | 61° |
| 2026-04-24 00:35 | 35.64877 | -88.18167 | 15047 ft | 293 kts | 61° |
| 2026-04-24 00:35 | 35.65815 | -88.15938 | 15044 ft | 294 kts | 61° |
| 2026-04-24 00:35 | 35.66755 | -88.13701 | 15042 ft | 294 kts | 61° |
| 2026-04-24 00:36 | 35.67694 | -88.11467 | 15044 ft | 294 kts | 61° |
| 2026-04-24 00:36 | 35.68632 | -88.09232 | 15046 ft | 294 kts | 61° |
| 2026-04-24 00:36 | 35.69568 | -88.06999 | 15047 ft | 294 kts | 61° |
| 2026-04-24 00:36 | 35.70506 | -88.04760 | 15045 ft | 294 kts | 61° |
| 2026-04-24 00:37 | 35.71442 | -88.02527 | 15043 ft | 294 kts | 61° |
| 2026-04-24 00:37 | 35.72378 | -88.00289 | 15045 ft | 294 kts | 61° |
| 2026-04-24 00:37 | 35.73303 | -87.98077 | 15043 ft | 294 kts | 61° |
| 2026-04-24 00:37 | 35.74241 | -87.95838 | 15046 ft | 294 kts | 61° |
| 2026-04-24 00:38 | 35.75176 | -87.93593 | 15045 ft | 295 kts | 61° |
| 2026-04-24 00:38 | 35.76113 | -87.91350 | 15032 ft | 295 kts | 61° |
| 2026-04-24 00:38 | 35.77038 | -87.89131 | 14665 ft | 282 kts | 62° |
| 2026-04-24 00:38 | 35.77915 | -87.87017 | 14310 ft | 272 kts | 62° |
| 2026-04-24 00:39 | 35.78771 | -87.84962 | 13954 ft | 266 kts | 62° |
| 2026-04-24 00:39 | 35.79612 | -87.82948 | 13575 ft | 262 kts | 62° |
| 2026-04-24 00:39 | 35.80431 | -87.80983 | 13192 ft | 260 kts | 62° |
| 2026-04-24 00:39 | 35.81251 | -87.79010 | 12808 ft | 258 kts | 62° |
| 2026-04-24 00:40 | 35.82067 | -87.77050 | 12422 ft | 256 kts | 62° |
| 2026-04-24 00:40 | 35.82893 | -87.75064 | 12049 ft | 269 kts | 62° |
| 2026-04-24 00:40 | 35.83768 | -87.72969 | 11688 ft | 280 kts | 62° |
| 2026-04-24 00:40 | 35.84666 | -87.70811 | 11334 ft | 285 kts | 62° |
| 2026-04-24 00:41 | 35.85571 | -87.68622 | 10985 ft | 287 kts | 62° |
| 2026-04-24 00:41 | 35.86479 | -87.66422 | 10619 ft | 288 kts | 63° |
| 2026-04-24 00:41 | 35.87388 | -87.64221 | 10270 ft | 288 kts | 63° |
| 2026-04-24 00:41 | 35.88298 | -87.62026 | 10015 ft | 283 kts | 63° |
| 2026-04-24 00:42 | 35.89173 | -87.59898 | 10012 ft | 274 kts | 63° |
| 2026-04-24 00:42 | 35.90028 | -87.57824 | 10008 ft | 269 kts | 63° |
| 2026-04-24 00:42 | 35.90874 | -87.55781 | 10005 ft | 266 kts | 63° |
| 2026-04-24 00:42 | 35.91702 | -87.53779 | 10009 ft | 264 kts | 63° |
| 2026-04-24 00:43 | 35.92535 | -87.51762 | 10006 ft | 263 kts | 63° |
| 2026-04-24 00:43 | 35.93365 | -87.49747 | 10008 ft | 263 kts | 63° |
| 2026-04-24 00:43 | 35.94192 | -87.47735 | 10007 ft | 262 kts | 63° |
| 2026-04-24 00:43 | 35.95020 | -87.45724 | 10004 ft | 263 kts | 63° |
| 2026-04-24 00:44 | 35.95849 | -87.43710 | 10014 ft | 263 kts | 63° |
| 2026-04-24 00:44 | 35.96680 | -87.41693 | 10015 ft | 263 kts | 63° |
| 2026-04-24 00:44 | 35.97506 | -87.39682 | 10013 ft | 262 kts | 63° |
| 2026-04-24 00:44 | 35.98334 | -87.37664 | 10011 ft | 266 kts | 63° |
| 2026-04-24 00:45 | 35.99181 | -87.35604 | 10014 ft | 272 kts | 63° |
| 2026-04-24 00:45 | 36.00040 | -87.33511 | 10018 ft | 275 kts | 63° |
| 2026-04-24 00:45 | 36.00904 | -87.31399 | 10022 ft | 277 kts | 63° |
| 2026-04-24 00:45 | 36.01781 | -87.29263 | 9813 ft | 285 kts | 63° |
| 2026-04-24 00:46 | 36.02676 | -87.27085 | 9307 ft | 287 kts | 64° |
| 2026-04-24 00:46 | 36.03568 | -87.24897 | 8791 ft | 283 kts | 64° |
| 2026-04-24 00:46 | 36.04449 | -87.22730 | 8289 ft | 281 kts | 64° |
| 2026-04-24 00:46 | 36.05326 | -87.20579 | 7794 ft | 280 kts | 65° |
| 2026-04-24 00:47 | 36.06203 | -87.18437 | 7297 ft | 279 kts | 65° |
| 2026-04-24 00:47 | 36.07076 | -87.16303 | 6815 ft | 278 kts | 65° |
| 2026-04-24 00:47 | 36.07942 | -87.14174 | 6335 ft | 277 kts | 66° |
| 2026-04-24 00:47 | 36.08807 | -87.12052 | 5832 ft | 276 kts | 66° |
| 2026-04-24 00:48 | 36.09672 | -87.09926 | 5331 ft | 277 kts | 66° |
| 2026-04-24 00:48 | 36.10540 | -87.07799 | 4845 ft | 277 kts | 65° |
| 2026-04-24 00:48 | 36.11754 | -87.05956 | 4339 ft | 281 kts | 39° |
| 2026-04-24 00:48 | 36.13485 | -87.04840 | 3841 ft | 281 kts | 22° |
| 2026-04-24 00:49 | 36.15298 | -87.03965 | 3349 ft | 277 kts | 21° |
| 2026-04-24 00:49 | 36.17090 | -87.03118 | 3005 ft | 270 kts | 21° |
| 2026-04-24 00:49 | 36.18788 | -87.02333 | 3003 ft | 259 kts | 21° |
| 2026-04-24 00:49 | 36.20457 | -87.01555 | 3000 ft | 256 kts | 21° |
| 2026-04-24 00:50 | 36.22084 | -87.00790 | 2993 ft | 246 kts | 21° |
| 2026-04-24 00:50 | 36.23674 | -87.00047 | 2989 ft | 243 kts | 21° |
| 2026-04-24 00:50 | 36.25253 | -86.99311 | 2993 ft | 245 kts | 21° |
| 2026-04-24 00:50 | 36.26858 | -86.98555 | 2995 ft | 247 kts | 21° |
| 2026-04-24 00:51 | 36.28472 | -86.97805 | 2994 ft | 248 kts | 21° |
| 2026-04-24 00:51 | 36.30090 | -86.97046 | 2999 ft | 248 kts | 21° |
| 2026-04-24 00:51 | 36.31711 | -86.96285 | 2997 ft | 249 kts | 21° |
| 2026-04-24 00:51 | 36.33336 | -86.95529 | 2999 ft | 249 kts | 21° |
| 2026-04-24 00:52 | 36.34961 | -86.94778 | 2999 ft | 249 kts | 21° |
| 2026-04-24 00:52 | 36.36565 | -86.94037 | 3001 ft | 249 kts | 21° |
| 2026-04-24 00:52 | 36.38194 | -86.93296 | 3004 ft | 249 kts | 21° |
| 2026-04-24 00:52 | 36.39824 | -86.92558 | 3004 ft | 249 kts | 21° |
| 2026-04-24 00:53 | 36.41454 | -86.91812 | 3004 ft | 249 kts | 21° |
| 2026-04-24 00:53 | 36.43080 | -86.91062 | 3000 ft | 248 kts | 24° |
| 2026-04-24 00:53 | 36.44429 | -86.89784 | 2995 ft | 244 kts | 56° |
| 2026-04-24 00:53 | 36.45018 | -86.87875 | 3000 ft | 235 kts | 90° |
| 2026-04-24 00:54 | 36.44706 | -86.85961 | 2998 ft | 224 kts | 121° |
| 2026-04-24 00:54 | 36.43793 | -86.84457 | 3002 ft | 216 kts | 144° |
| 2026-04-24 00:54 | 36.42455 | -86.83717 | 3002 ft | 210 kts | 173° |
| 2026-04-24 00:54 | 36.41000 | -86.83500 | 3010 ft | 211 kts | 174° |
| 2026-04-24 00:55 | 36.39545 | -86.83226 | 3009 ft | 212 kts | 173° |
| 2026-04-24 00:55 | 36.38089 | -86.82943 | 3009 ft | 212 kts | 175° |
| 2026-04-24 00:55 | 36.36707 | -86.82865 | 2999 ft | 182 kts | 182° |
| 2026-04-24 00:55 | 36.35471 | -86.83086 | 2993 ft | 180 kts | 192° |
| 2026-04-24 00:56 | 36.34270 | -86.83433 | 2991 ft | 179 kts | 194° |
| 2026-04-24 00:56 | 36.33062 | -86.83808 | 2997 ft | 179 kts | 194° |
| 2026-04-24 00:56 | 36.31859 | -86.84215 | 2981 ft | 180 kts | 194° |
| 2026-04-24 00:56 | 36.30676 | -86.84594 | 2785 ft | 169 kts | 194° |
| 2026-04-24 00:57 | 36.29634 | -86.84937 | 2581 ft | 145 kts | 195° |
| 2026-04-24 00:57 | 36.28726 | -86.85239 | 2391 ft | 127 kts | 195° |
| 2026-04-24 00:57 | 36.27051 | -86.85783 | 2083 ft | 126 kts | 194° |
| 2026-04-24 00:58 | 36.26183 | -86.86071 | 1912 ft | 131 kts | 194° |
| 2026-04-24 00:58 | 36.25306 | -86.86359 | 1748 ft | 134 kts | 195° |
| 2026-04-24 00:58 | 36.24413 | -86.86650 | 1566 ft | 132 kts | 194° |
| 2026-04-24 00:58 | 36.23504 | -86.86943 | 1390 ft | 136 kts | 194° |
| 2026-04-24 00:59 | 36.22580 | -86.87247 | 1210 ft | 138 kts | 195° |
| 2026-04-24 00:59 | 36.21721 | -86.87526 | 1048 ft | 115 kts | 195° |
| 2026-04-24 00:59 | 36.21036 | -86.87752 | 915 ft | 92 kts | 194° |
| 2026-04-24 00:59 | 36.20414 | -86.87953 | 791 ft | 95 kts | 194° |
| 2026-04-24 01:00 | 36.19780 | -86.88167 | 671 ft | 94 kts | 195° |
| 2026-04-24 01:00 | 36.19161 | -86.88370 | 578 ft | 90 kts | 196° |
| 2026-04-24 01:00 | 36.18609 | -86.88552 | 496 ft | 65 kts | 195° |
| 2026-04-24 01:00 | 36.18280 | -86.88661 | 480 ft | 39 kts | 195° |
| 2026-04-24 01:01 | 36.18013 | -86.88749 | 476 ft | 31 kts | 194° |
| 2026-04-24 01:01 | 36.17921 | -86.88697 | 473 ft | 12 kts | 104° |
| 2026-04-24 01:01 | 36.17917 | -86.88680 | 474 ft | 0 kts | 105° |
| 2026-04-24 01:02 | 36.17917 | -86.88679 | 474 ft | 3 kts | 106° |
| 2026-04-24 01:02 | 36.17902 | -86.88633 | 471 ft | 4 kts | 37° |
| 2026-04-24 01:02 | 36.18010 | -86.88596 | 474 ft | 18 kts | 59° |
| 2026-04-24 01:03 | 36.17959 | -86.88463 | 473 ft | 19 kts | 140° |